sensor_id;sensor_type;location;lat;lon;timestamp;temperature;humidity
72380;SHT30;60354;47.798;12.472;2022-08-06T00:00:39;21.56;79.56
72380;SHT30;60354;47.798;12.472;2022-08-06T00:03:07;21.49;79.17
72380;SHT30;60354;47.798;12.472;2022-08-06T00:05:33;21.40;77.92
72380;SHT30;60354;47.798;12.472;2022-08-06T00:07:58;21.36;77.37
72380;SHT30;60354;47.798;12.472;2022-08-06T00:10:24;21.61;78.34
72380;SHT30;60354;47.798;12.472;2022-08-06T00:12:51;21.70;79.28
72380;SHT30;60354;47.798;12.472;2022-08-06T00:15:17;21.66;79.65
72380;SHT30;60354;47.798;12.472;2022-08-06T00:17:46;21.76;77.90
72380;SHT30;60354;47.798;12.472;2022-08-06T00:20:13;21.67;78.74
72380;SHT30;60354;47.798;12.472;2022-08-06T00:22:39;21.64;78.16
72380;SHT30;60354;47.798;12.472;2022-08-06T00:25:05;21.54;79.43
72380;SHT30;60354;47.798;12.472;2022-08-06T00:27:33;21.54;80.12
72380;SHT30;60354;47.798;12.472;2022-08-06T00:29:59;21.46;79.09
72380;SHT30;60354;47.798;12.472;2022-08-06T00:32:24;21.43;79.79
72380;SHT30;60354;47.798;12.472;2022-08-06T00:34:50;21.27;81.02
72380;SHT30;60354;47.798;12.472;2022-08-06T00:37:15;21.19;82.37
72380;SHT30;60354;47.798;12.472;2022-08-06T00:39:41;21.23;81.62
72380;SHT30;60354;47.798;12.472;2022-08-06T00:42:08;21.26;81.93
72380;SHT30;60354;47.798;12.472;2022-08-06T00:44:34;21.35;80.14
72380;SHT30;60354;47.798;12.472;2022-08-06T00:47:00;21.26;81.73
72380;SHT30;60354;47.798;12.472;2022-08-06T00:49:25;21.26;81.99
72380;SHT30;60354;47.798;12.472;2022-08-06T00:51:51;21.27;81.32
72380;SHT30;60354;47.798;12.472;2022-08-06T00:54:16;21.08;82.58
72380;SHT30;60354;47.798;12.472;2022-08-06T00:56:42;20.87;82.84
72380;SHT30;60354;47.798;12.472;2022-08-06T00:59:07;20.64;83.59
72380;SHT30;60354;47.798;12.472;2022-08-06T01:01:33;20.51;83.96
72380;SHT30;60354;47.798;12.472;2022-08-06T01:03:58;20.54;83.95
72380;SHT30;60354;47.798;12.472;2022-08-06T01:06:24;20.28;84.62
72380;SHT30;60354;47.798;12.472;2022-08-06T01:08:49;20.18;85.21
72380;SHT30;60354;47.798;12.472;2022-08-06T01:11:15;20.05;85.95
72380;SHT30;60354;47.798;12.472;2022-08-06T01:13:40;20.06;85.68
72380;SHT30;60354;47.798;12.472;2022-08-06T01:16:15;20.09;85.90
72380;SHT30;60354;47.798;12.472;2022-08-06T01:21:30;20.28;84.90
72380;SHT30;60354;47.798;12.472;2022-08-06T01:29:33;20.69;84.21
72380;SHT30;60354;47.798;12.472;2022-08-06T01:32:14;20.72;83.83
72380;SHT30;60354;47.798;12.472;2022-08-06T01:34:51;20.72;83.07
72380;SHT30;60354;47.798;12.472;2022-08-06T01:37:23;20.84;83.36
72380;SHT30;60354;47.798;12.472;2022-08-06T01:39:55;20.78;83.17
72380;SHT30;60354;47.798;12.472;2022-08-06T01:42:23;20.91;82.84
72380;SHT30;60354;47.798;12.472;2022-08-06T01:44:53;20.94;82.99
72380;SHT30;60354;47.798;12.472;2022-08-06T01:47:20;20.88;82.75
72380;SHT30;60354;47.798;12.472;2022-08-06T01:49:52;20.96;82.67
72380;SHT30;60354;47.798;12.472;2022-08-06T01:52:19;20.98;82.53
72380;SHT30;60354;47.798;12.472;2022-08-06T01:54:46;20.88;83.01
72380;SHT30;60354;47.798;12.472;2022-08-06T01:57:16;20.84;81.93
72380;SHT30;60354;47.798;12.472;2022-08-06T01:59:45;20.89;81.76
72380;SHT30;60354;47.798;12.472;2022-08-06T02:02:16;20.95;81.79
72380;SHT30;60354;47.798;12.472;2022-08-06T02:04:45;20.98;81.79
72380;SHT30;60354;47.798;12.472;2022-08-06T02:07:13;21.05;81.80
72380;SHT30;60354;47.798;12.472;2022-08-06T02:09:42;21.06;81.74
72380;SHT30;60354;47.798;12.472;2022-08-06T02:12:11;21.12;81.50
72380;SHT30;60354;47.798;12.472;2022-08-06T02:14:45;21.12;80.05
72380;SHT30;60354;47.798;12.472;2022-08-06T02:17:12;21.08;80.98
72380;SHT30;60354;47.798;12.472;2022-08-06T02:19:43;20.98;80.29
72380;SHT30;60354;47.798;12.472;2022-08-06T02:22:08;20.94;80.67
72380;SHT30;60354;47.798;12.472;2022-08-06T02:24:36;20.99;80.97
72380;SHT30;60354;47.798;12.472;2022-08-06T02:27:02;20.95;80.80
72380;SHT30;60354;47.798;12.472;2022-08-06T02:29:29;20.94;80.74
72380;SHT30;60354;47.798;12.472;2022-08-06T02:31:56;20.95;81.11
72380;SHT30;60354;47.798;12.472;2022-08-06T02:34:21;21.05;81.24
72380;SHT30;60354;47.798;12.472;2022-08-06T02:36:56;20.81;78.77
72380;SHT30;60354;47.798;12.472;2022-08-06T02:39:32;20.85;79.99
72380;SHT30;60354;47.798;12.472;2022-08-06T02:42:10;20.79;80.74
72380;SHT30;60354;47.798;12.472;2022-08-06T02:44:47;20.79;81.15
72380;SHT30;60354;47.798;12.472;2022-08-06T02:47:44;20.75;81.60
72380;SHT30;60354;47.798;12.472;2022-08-06T02:50:13;20.77;81.21
72380;SHT30;60354;47.798;12.472;2022-08-06T02:52:44;20.71;80.88
72380;SHT30;60354;47.798;12.472;2022-08-06T02:55:17;20.77;81.20
72380;SHT30;60354;47.798;12.472;2022-08-06T02:57:52;20.71;80.78
72380;SHT30;60354;47.798;12.472;2022-08-06T03:00:19;20.64;81.09
72380;SHT30;60354;47.798;12.472;2022-08-06T03:02:47;20.61;81.12
72380;SHT30;60354;47.798;12.472;2022-08-06T03:05:15;20.72;80.85
72380;SHT30;60354;47.798;12.472;2022-08-06T03:07:44;20.63;81.44
72380;SHT30;60354;47.798;12.472;2022-08-06T03:10:12;20.48;81.39
72380;SHT30;60354;47.798;12.472;2022-08-06T03:12:38;20.13;81.97
72380;SHT30;60354;47.798;12.472;2022-08-06T03:15:06;19.92;82.57
72380;SHT30;60354;47.798;12.472;2022-08-06T03:17:33;19.94;82.10
72380;SHT30;60354;47.798;12.472;2022-08-06T03:20:01;19.96;83.18
72380;SHT30;60354;47.798;12.472;2022-08-06T03:22:28;19.93;83.43
72380;SHT30;60354;47.798;12.472;2022-08-06T03:24:56;19.90;84.31
72380;SHT30;60354;47.798;12.472;2022-08-06T03:27:22;19.90;83.80
72380;SHT30;60354;47.798;12.472;2022-08-06T03:29:49;19.94;83.43
72380;SHT30;60354;47.798;12.472;2022-08-06T03:32:16;20.03;83.07
72380;SHT30;60354;47.798;12.472;2022-08-06T03:34:42;19.94;83.22
72380;SHT30;60354;47.798;12.472;2022-08-06T03:37:09;20.07;82.41
72380;SHT30;60354;47.798;12.472;2022-08-06T03:39:37;20.07;82.13
72380;SHT30;60354;47.798;12.472;2022-08-06T03:42:04;20.09;82.42
72380;SHT30;60354;47.798;12.472;2022-08-06T03:44:30;20.03;81.97
72380;SHT30;60354;47.798;12.472;2022-08-06T03:47:00;20.00;82.78
72380;SHT30;60354;47.798;12.472;2022-08-06T03:49:48;20.01;82.26
72380;SHT30;60354;47.798;12.472;2022-08-06T03:52:20;20.05;81.80
72380;SHT30;60354;47.798;12.472;2022-08-06T03:54:48;20.09;81.71
72380;SHT30;60354;47.798;12.472;2022-08-06T03:57:19;20.20;80.92
72380;SHT30;60354;47.798;12.472;2022-08-06T03:59:47;20.17;80.75
72380;SHT30;60354;47.798;12.472;2022-08-06T04:02:14;20.24;80.26
72380;SHT30;60354;47.798;12.472;2022-08-06T04:04:42;20.31;80.49
72380;SHT30;60354;47.798;12.472;2022-08-06T04:07:08;20.31;80.62
72380;SHT30;60354;47.798;12.472;2022-08-06T04:09:34;20.41;80.35
72380;SHT30;60354;47.798;12.472;2022-08-06T04:12:01;20.44;79.72
72380;SHT30;60354;47.798;12.472;2022-08-06T04:14:28;20.41;78.87
72380;SHT30;60354;47.798;12.472;2022-08-06T04:16:54;20.48;79.20
72380;SHT30;60354;47.798;12.472;2022-08-06T04:19:20;20.40;79.50
72380;SHT30;60354;47.798;12.472;2022-08-06T04:21:47;20.33;77.85
72380;SHT30;60354;47.798;12.472;2022-08-06T04:24:14;20.38;78.17
72380;SHT30;60354;47.798;12.472;2022-08-06T04:26:42;20.30;78.63
72380;SHT30;60354;47.798;12.472;2022-08-06T04:29:14;20.30;78.86
72380;SHT30;60354;47.798;12.472;2022-08-06T04:31:43;20.37;79.45
72380;SHT30;60354;47.798;12.472;2022-08-06T04:34:09;20.38;78.33
72380;SHT30;60354;47.798;12.472;2022-08-06T04:36:36;20.45;78.31
72380;SHT30;60354;47.798;12.472;2022-08-06T04:39:03;20.49;79.13
72380;SHT30;60354;47.798;12.472;2022-08-06T04:41:28;20.45;77.02
72380;SHT30;60354;47.798;12.472;2022-08-06T04:43:54;20.54;76.30
72380;SHT30;60354;47.798;12.472;2022-08-06T04:46:20;20.61;77.29
72380;SHT30;60354;47.798;12.472;2022-08-06T04:48:47;20.45;74.05
72380;SHT30;60354;47.798;12.472;2022-08-06T04:51:13;20.58;75.12
72380;SHT30;60354;47.798;12.472;2022-08-06T04:53:40;20.59;75.32
72380;SHT30;60354;47.798;12.472;2022-08-06T04:56:06;20.54;75.16
72380;SHT30;60354;47.798;12.472;2022-08-06T04:58:33;20.57;74.21
72380;SHT30;60354;47.798;12.472;2022-08-06T05:00:59;20.57;75.18
72380;SHT30;60354;47.798;12.472;2022-08-06T05:03:25;20.54;75.49
72380;SHT30;60354;47.798;12.472;2022-08-06T05:08:43;20.52;74.24
72380;SHT30;60354;47.798;12.472;2022-08-06T05:11:16;20.55;73.36
72380;SHT30;60354;47.798;12.472;2022-08-06T05:13:45;20.54;73.15
72380;SHT30;60354;47.798;12.472;2022-08-06T05:16:13;20.59;74.19
72380;SHT30;60354;47.798;12.472;2022-08-06T05:18:43;20.58;73.25
72380;SHT30;60354;47.798;12.472;2022-08-06T05:21:12;20.65;74.09
72380;SHT30;60354;47.798;12.472;2022-08-06T05:23:48;20.68;74.98
72380;SHT30;60354;47.798;12.472;2022-08-06T05:26:14;20.74;74.44
72380;SHT30;60354;47.798;12.472;2022-08-06T05:28:41;20.82;74.54
72380;SHT30;60354;47.798;12.472;2022-08-06T05:31:08;20.61;75.18
72380;SHT30;60354;47.798;12.472;2022-08-06T05:33:35;20.55;75.22
72380;SHT30;60354;47.798;12.472;2022-08-06T05:36:03;20.54;75.41
72380;SHT30;60354;47.798;12.472;2022-08-06T05:38:30;20.64;74.58
72380;SHT30;60354;47.798;12.472;2022-08-06T05:40:55;20.82;74.52
72380;SHT30;60354;47.798;12.472;2022-08-06T05:43:22;20.89;73.96
72380;SHT30;60354;47.798;12.472;2022-08-06T05:45:49;21.02;73.85
72380;SHT30;60354;47.798;12.472;2022-08-06T05:48:18;20.98;74.64
72380;SHT30;60354;47.798;12.472;2022-08-06T05:51:00;20.77;73.24
72380;SHT30;60354;47.798;12.472;2022-08-06T05:53:36;20.79;74.80
72380;SHT30;60354;47.798;12.472;2022-08-06T05:56:27;20.79;75.63
72380;SHT30;60354;47.798;12.472;2022-08-06T05:59:08;20.64;75.03
72380;SHT30;60354;47.798;12.472;2022-08-06T06:01:36;20.52;75.15
72380;SHT30;60354;47.798;12.472;2022-08-06T06:04:02;20.65;75.75
72380;SHT30;60354;47.798;12.472;2022-08-06T06:06:28;20.67;75.72
72380;SHT30;60354;47.798;12.472;2022-08-06T06:08:55;20.77;74.51
72380;SHT30;60354;47.798;12.472;2022-08-06T06:11:22;20.81;73.96
72380;SHT30;60354;47.798;12.472;2022-08-06T06:13:48;20.88;75.41
72380;SHT30;60354;47.798;12.472;2022-08-06T06:16:27;20.85;75.05
72380;SHT30;60354;47.798;12.472;2022-08-06T06:18:58;20.88;74.28
72380;SHT30;60354;47.798;12.472;2022-08-06T06:21:44;21.00;73.96
72380;SHT30;60354;47.798;12.472;2022-08-06T06:24:18;21.18;73.15
72380;SHT30;60354;47.798;12.472;2022-08-06T06:27:11;21.29;72.95
72380;SHT30;60354;47.798;12.472;2022-08-06T06:29:57;21.26;73.17
72380;SHT30;60354;47.798;12.472;2022-08-06T06:43:04;20.91;75.26
72380;SHT30;60354;47.798;12.472;2022-08-06T06:45:36;20.79;75.69
72380;SHT30;60354;47.798;12.472;2022-08-06T06:48:09;20.64;76.19
72380;SHT30;60354;47.798;12.472;2022-08-06T06:50:47;20.65;76.89
72380;SHT30;60354;47.798;12.472;2022-08-06T06:53:15;20.59;76.92
72380;SHT30;60354;47.798;12.472;2022-08-06T06:55:45;20.59;77.04
72380;SHT30;60354;47.798;12.472;2022-08-06T06:58:47;20.49;77.50
72380;SHT30;60354;47.798;12.472;2022-08-06T07:01:14;20.51;77.80
72380;SHT30;60354;47.798;12.472;2022-08-06T07:03:42;20.55;77.51
72380;SHT30;60354;47.798;12.472;2022-08-06T07:06:10;20.55;76.72
72380;SHT30;60354;47.798;12.472;2022-08-06T07:08:41;20.58;77.50
72380;SHT30;60354;47.798;12.472;2022-08-06T07:11:14;20.55;77.62
72380;SHT30;60354;47.798;12.472;2022-08-06T07:13:42;20.49;78.29
72380;SHT30;60354;47.798;12.472;2022-08-06T07:16:10;20.38;79.66
72380;SHT30;60354;47.798;12.472;2022-08-06T07:18:37;20.31;78.54
72380;SHT30;60354;47.798;12.472;2022-08-06T07:21:04;20.43;80.04
72380;SHT30;60354;47.798;12.472;2022-08-06T07:23:31;20.43;79.77
72380;SHT30;60354;47.798;12.472;2022-08-06T07:25:58;20.49;79.53
72380;SHT30;60354;47.798;12.472;2022-08-06T07:28:25;20.37;79.77
72380;SHT30;60354;47.798;12.472;2022-08-06T07:30:52;20.28;81.47
72380;SHT30;60354;47.798;12.472;2022-08-06T07:33:19;20.10;82.41
72380;SHT30;60354;47.798;12.472;2022-08-06T07:35:46;20.13;82.14
72380;SHT30;60354;47.798;12.472;2022-08-06T07:38:15;20.14;81.54
72380;SHT30;60354;47.798;12.472;2022-08-06T07:40:46;20.00;81.86
72380;SHT30;60354;47.798;12.472;2022-08-06T07:43:17;19.92;81.41
72380;SHT30;60354;47.798;12.472;2022-08-06T07:45:45;20.01;80.45
72380;SHT30;60354;47.798;12.472;2022-08-06T07:48:12;20.03;82.34
72380;SHT30;60354;47.798;12.472;2022-08-06T07:50:42;20.09;81.06
72380;SHT30;60354;47.798;12.472;2022-08-06T07:53:10;20.12;82.38
72380;SHT30;60354;47.798;12.472;2022-08-06T07:55:36;20.07;81.85
72380;SHT30;60354;47.798;12.472;2022-08-06T07:58:04;19.92;83.84
72380;SHT30;60354;47.798;12.472;2022-08-06T08:00:30;19.94;84.06
72380;SHT30;60354;47.798;12.472;2022-08-06T08:02:57;19.80;85.00
72380;SHT30;60354;47.798;12.472;2022-08-06T08:05:42;19.66;83.84
72380;SHT30;60354;47.798;12.472;2022-08-06T08:08:28;19.72;84.63
72380;SHT30;60354;47.798;12.472;2022-08-06T08:10:55;19.85;84.14
72380;SHT30;60354;47.798;12.472;2022-08-06T08:13:22;19.92;83.83
72380;SHT30;60354;47.798;12.472;2022-08-06T08:15:49;19.90;84.47
72380;SHT30;60354;47.798;12.472;2022-08-06T08:18:15;20.00;84.72
72380;SHT30;60354;47.798;12.472;2022-08-06T08:20:42;19.99;83.10
72380;SHT30;60354;47.798;12.472;2022-08-06T08:23:09;20.10;84.26
72380;SHT30;60354;47.798;12.472;2022-08-06T08:25:37;19.97;84.80
72380;SHT30;60354;47.798;12.472;2022-08-06T08:28:02;20.00;84.21
72380;SHT30;60354;47.798;12.472;2022-08-06T08:30:28;20.12;84.39
72380;SHT30;60354;47.798;12.472;2022-08-06T08:32:53;20.12;84.36
72380;SHT30;60354;47.798;12.472;2022-08-06T08:35:19;20.17;84.40
72380;SHT30;60354;47.798;12.472;2022-08-06T08:37:44;19.83;84.75
72380;SHT30;60354;47.798;12.472;2022-08-06T08:40:10;19.62;85.80
72380;SHT30;60354;47.798;12.472;2022-08-06T08:42:40;19.56;86.24
72380;SHT30;60354;47.798;12.472;2022-08-06T08:45:08;19.51;85.44
72380;SHT30;60354;47.798;12.472;2022-08-06T08:47:39;19.39;85.51
72380;SHT30;60354;47.798;12.472;2022-08-06T08:50:06;19.22;87.13
72380;SHT30;60354;47.798;12.472;2022-08-06T08:52:32;19.17;87.05
72380;SHT30;60354;47.798;12.472;2022-08-06T08:55:02;19.25;86.61
72380;SHT30;60354;47.798;12.472;2022-08-06T08:57:28;19.35;86.97
72380;SHT30;60354;47.798;12.472;2022-08-06T08:59:54;19.25;86.21
72380;SHT30;60354;47.798;12.472;2022-08-06T09:02:21;19.14;87.70
72380;SHT30;60354;47.798;12.472;2022-08-06T09:04:48;19.03;86.48
72380;SHT30;60354;47.798;12.472;2022-08-06T09:07:15;18.87;86.76
72380;SHT30;60354;47.798;12.472;2022-08-06T09:09:41;18.94;87.24
72380;SHT30;60354;47.798;12.472;2022-08-06T09:12:07;18.90;86.81
72380;SHT30;60354;47.798;12.472;2022-08-06T09:14:34;18.97;87.36
72380;SHT30;60354;47.798;12.472;2022-08-06T09:17:02;18.96;86.88
72380;SHT30;60354;47.798;12.472;2022-08-06T09:19:27;18.80;87.79
72380;SHT30;60354;47.798;12.472;2022-08-06T09:21:58;18.74;87.93
72380;SHT30;60354;47.798;12.472;2022-08-06T09:24:24;18.70;88.37
72380;SHT30;60354;47.798;12.472;2022-08-06T09:27:13;18.57;88.52
72380;SHT30;60354;47.798;12.472;2022-08-06T09:32:40;18.67;87.27
72380;SHT30;60354;47.798;12.472;2022-08-06T09:37:45;18.71;86.98
72380;SHT30;60354;47.798;12.472;2022-08-06T09:40:16;18.60;86.75
72380;SHT30;60354;47.798;12.472;2022-08-06T09:42:44;18.50;87.38
72380;SHT30;60354;47.798;12.472;2022-08-06T09:45:15;18.56;87.17
72380;SHT30;60354;47.798;12.472;2022-08-06T09:47:41;18.49;87.41
72380;SHT30;60354;47.798;12.472;2022-08-06T09:50:08;18.50;88.64
72380;SHT30;60354;47.798;12.472;2022-08-06T09:52:34;18.55;88.13
72380;SHT30;60354;47.798;12.472;2022-08-06T09:55:00;18.56;88.26
72380;SHT30;60354;47.798;12.472;2022-08-06T09:57:41;18.50;87.84
72380;SHT30;60354;47.798;12.472;2022-08-06T10:00:07;18.39;87.80
72380;SHT30;60354;47.798;12.472;2022-08-06T10:02:33;18.40;87.61
72380;SHT30;60354;47.798;12.472;2022-08-06T10:05:11;18.35;87.53
72380;SHT30;60354;47.798;12.472;2022-08-06T10:07:37;18.24;88.47
72380;SHT30;60354;47.798;12.472;2022-08-06T10:10:04;18.15;88.60
72380;SHT30;60354;47.798;12.472;2022-08-06T10:12:30;18.24;88.87
72380;SHT30;60354;47.798;12.472;2022-08-06T10:14:56;18.39;87.42
72380;SHT30;60354;47.798;12.472;2022-08-06T10:17:23;18.28;87.48
72380;SHT30;60354;47.798;12.472;2022-08-06T10:20:09;18.22;86.99
72380;SHT30;60354;47.798;12.472;2022-08-06T10:22:54;18.30;87.93
72380;SHT30;60354;47.798;12.472;2022-08-06T10:25:22;18.26;88.24
72380;SHT30;60354;47.798;12.472;2022-08-06T10:27:48;17.97;87.48
72380;SHT30;60354;47.798;12.472;2022-08-06T10:30:15;18.08;88.08
72380;SHT30;60354;47.798;12.472;2022-08-06T10:32:51;17.98;87.73
72380;SHT30;60354;47.798;12.472;2022-08-06T10:35:21;18.04;87.92
72380;SHT30;60354;47.798;12.472;2022-08-06T10:37:55;18.13;87.80
72380;SHT30;60354;47.798;12.472;2022-08-06T10:40:26;18.15;87.26
72380;SHT30;60354;47.798;12.472;2022-08-06T10:42:52;18.26;86.84
72380;SHT30;60354;47.798;12.472;2022-08-06T10:45:18;18.22;86.58
72380;SHT30;60354;47.798;12.472;2022-08-06T10:47:45;18.22;87.06
72380;SHT30;60354;47.798;12.472;2022-08-06T10:50:12;18.13;86.86
72380;SHT30;60354;47.798;12.472;2022-08-06T10:52:39;18.08;86.94
72380;SHT30;60354;47.798;12.472;2022-08-06T10:55:06;18.16;87.62
72380;SHT30;60354;47.798;12.472;2022-08-06T10:57:31;18.05;87.83
72380;SHT30;60354;47.798;12.472;2022-08-06T10:59:59;18.06;87.82
72380;SHT30;60354;47.798;12.472;2022-08-06T11:05:11;17.92;87.83
72380;SHT30;60354;47.798;12.472;2022-08-06T11:15:39;18.15;88.11
72380;SHT30;60354;47.798;12.472;2022-08-06T11:18:07;18.10;87.62
72380;SHT30;60354;47.798;12.472;2022-08-06T11:25:50;18.13;88.43
72380;SHT30;60354;47.798;12.472;2022-08-06T11:28:17;18.16;87.02
72380;SHT30;60354;47.798;12.472;2022-08-06T11:33:17;18.08;86.80
72380;SHT30;60354;47.798;12.472;2022-08-06T11:35:45;18.13;88.21
72380;SHT30;60354;47.798;12.472;2022-08-06T11:38:13;18.08;87.76
72380;SHT30;60354;47.798;12.472;2022-08-06T11:46:39;18.25;87.37
72380;SHT30;60354;47.798;12.472;2022-08-06T11:49:22;18.28;87.86
72380;SHT30;60354;47.798;12.472;2022-08-06T11:51:55;18.32;87.64
72380;SHT30;60354;47.798;12.472;2022-08-06T12:07:40;18.46;87.43
72380;SHT30;60354;47.798;12.472;2022-08-06T12:12:50;18.63;85.93
72380;SHT30;60354;47.798;12.472;2022-08-06T12:17:57;18.57;86.84
72380;SHT30;60354;47.798;12.472;2022-08-06T12:20:39;18.40;86.02
72380;SHT30;60354;47.798;12.472;2022-08-06T12:25:32;18.30;86.16
72380;SHT30;60354;47.798;12.472;2022-08-06T12:27:58;18.33;87.61
72380;SHT30;60354;47.798;12.472;2022-08-06T12:30:24;18.32;86.72
72380;SHT30;60354;47.798;12.472;2022-08-06T12:32:59;18.32;85.89
72380;SHT30;60354;47.798;12.472;2022-08-06T12:35:24;18.29;86.76
72380;SHT30;60354;47.798;12.472;2022-08-06T12:37:50;18.28;86.93
72380;SHT30;60354;47.798;12.472;2022-08-06T12:40:17;18.35;86.90
72380;SHT30;60354;47.798;12.472;2022-08-06T12:45:28;18.26;86.87
72380;SHT30;60354;47.798;12.472;2022-08-06T12:47:57;18.25;88.00
72380;SHT30;60354;47.798;12.472;2022-08-06T12:50:24;18.10;86.90
72380;SHT30;60354;47.798;12.472;2022-08-06T12:53:15;18.02;86.84
72380;SHT30;60354;47.798;12.472;2022-08-06T12:55:48;18.15;87.17
72380;SHT30;60354;47.798;12.472;2022-08-06T12:58:16;18.18;86.94
72380;SHT30;60354;47.798;12.472;2022-08-06T13:00:46;18.06;87.81
72380;SHT30;60354;47.798;12.472;2022-08-06T13:03:12;18.18;86.85
72380;SHT30;60354;47.798;12.472;2022-08-06T13:05:38;18.26;86.66
72380;SHT30;60354;47.798;12.472;2022-08-06T13:08:06;18.25;86.74
72380;SHT30;60354;47.798;12.472;2022-08-06T13:10:32;18.18;86.86
72380;SHT30;60354;47.798;12.472;2022-08-06T13:13:03;18.26;86.72
72380;SHT30;60354;47.798;12.472;2022-08-06T13:15:31;18.26;86.16
72380;SHT30;60354;47.798;12.472;2022-08-06T13:18:21;18.36;87.04
72380;SHT30;60354;47.798;12.472;2022-08-06T13:20:48;18.35;86.60
72380;SHT30;60354;47.798;12.472;2022-08-06T13:23:36;18.43;86.99
72380;SHT30;60354;47.798;12.472;2022-08-06T13:28:39;18.49;86.91
72380;SHT30;60354;47.798;12.472;2022-08-06T13:31:18;18.53;86.78
72380;SHT30;60354;47.798;12.472;2022-08-06T13:34:01;18.59;87.48
72380;SHT30;60354;47.798;12.472;2022-08-06T13:36:28;18.67;86.87
72380;SHT30;60354;47.798;12.472;2022-08-06T13:38:54;18.71;86.76
72380;SHT30;60354;47.798;12.472;2022-08-06T13:41:27;18.56;87.00
72380;SHT30;60354;47.798;12.472;2022-08-06T13:43:54;18.47;88.65
72380;SHT30;60354;47.798;12.472;2022-08-06T13:46:24;18.43;86.68
72380;SHT30;60354;47.798;12.472;2022-08-06T13:48:54;18.42;86.39
72380;SHT30;60354;47.798;12.472;2022-08-06T13:51:21;18.32;86.93
72380;SHT30;60354;47.798;12.472;2022-08-06T13:53:47;18.26;87.63
72380;SHT30;60354;47.798;12.472;2022-08-06T13:56:14;18.36;87.05
72380;SHT30;60354;47.798;12.472;2022-08-06T13:58:40;18.32;87.39
72380;SHT30;60354;47.798;12.472;2022-08-06T14:01:06;18.26;87.61
72380;SHT30;60354;47.798;12.472;2022-08-06T14:03:32;18.25;88.64
72380;SHT30;60354;47.798;12.472;2022-08-06T14:05:57;18.16;87.28
72380;SHT30;60354;47.798;12.472;2022-08-06T14:08:23;18.16;88.30
72380;SHT30;60354;47.798;12.472;2022-08-06T14:10:49;18.15;87.22
72380;SHT30;60354;47.798;12.472;2022-08-06T14:13:14;18.19;88.14
72380;SHT30;60354;47.798;12.472;2022-08-06T14:15:44;18.25;87.44
72380;SHT30;60354;47.798;12.472;2022-08-06T14:18:10;18.30;87.65
72380;SHT30;60354;47.798;12.472;2022-08-06T14:20:35;18.22;87.14
72380;SHT30;60354;47.798;12.472;2022-08-06T14:23:01;18.29;87.33
72380;SHT30;60354;47.798;12.472;2022-08-06T14:25:27;18.40;87.00
72380;SHT30;60354;47.798;12.472;2022-08-06T14:27:53;18.43;86.60
72380;SHT30;60354;47.798;12.472;2022-08-06T14:30:19;18.53;86.46
72380;SHT30;60354;47.798;12.472;2022-08-06T14:32:45;18.46;85.93
72380;SHT30;60354;47.798;12.472;2022-08-06T14:35:11;18.43;85.54
72380;SHT30;60354;47.798;12.472;2022-08-06T14:37:38;18.40;85.89
72380;SHT30;60354;47.798;12.472;2022-08-06T14:40:04;18.45;85.67
72380;SHT30;60354;47.798;12.472;2022-08-06T14:42:30;18.52;85.96
72380;SHT30;60354;47.798;12.472;2022-08-06T14:45:14;18.64;85.99
72380;SHT30;60354;47.798;12.472;2022-08-06T14:47:40;18.57;85.43
72380;SHT30;60354;47.798;12.472;2022-08-06T14:50:06;18.47;85.22
72380;SHT30;60354;47.798;12.472;2022-08-06T14:52:32;18.47;85.57
72380;SHT30;60354;47.798;12.472;2022-08-06T14:54:58;18.46;86.91
72380;SHT30;60354;47.798;12.472;2022-08-06T14:57:24;18.52;86.19
72380;SHT30;60354;47.798;12.472;2022-08-06T14:59:50;18.49;86.29
72380;SHT30;60354;47.798;12.472;2022-08-06T15:02:16;18.53;84.88
72380;SHT30;60354;47.798;12.472;2022-08-06T15:04:41;18.47;85.75
72380;SHT30;60354;47.798;12.472;2022-08-06T15:07:07;18.60;86.61
72380;SHT30;60354;47.798;12.472;2022-08-06T15:09:33;18.56;85.49
72380;SHT30;60354;47.798;12.472;2022-08-06T15:11:59;18.53;85.81
72380;SHT30;60354;47.798;12.472;2022-08-06T15:14:25;18.50;86.14
72380;SHT30;60354;47.798;12.472;2022-08-06T15:16:52;18.52;86.35
72380;SHT30;60354;47.798;12.472;2022-08-06T15:19:18;18.40;86.75
72380;SHT30;60354;47.798;12.472;2022-08-06T15:21:43;18.43;86.53
72380;SHT30;60354;47.798;12.472;2022-08-06T15:24:09;18.56;86.49
72380;SHT30;60354;47.798;12.472;2022-08-06T15:26:34;18.55;86.44
72380;SHT30;60354;47.798;12.472;2022-08-06T15:29:00;18.56;85.88
72380;SHT30;60354;47.798;12.472;2022-08-06T15:31:27;18.36;87.03
72380;SHT30;60354;47.798;12.472;2022-08-06T15:33:52;18.49;86.62
72380;SHT30;60354;47.798;12.472;2022-08-06T15:36:18;18.42;86.72
72380;SHT30;60354;47.798;12.472;2022-08-06T15:38:45;18.39;87.71
72380;SHT30;60354;47.798;12.472;2022-08-06T15:41:11;18.35;88.18
72380;SHT30;60354;47.798;12.472;2022-08-06T15:43:36;18.28;87.65
72380;SHT30;60354;47.798;12.472;2022-08-06T15:46:02;18.33;87.40
72380;SHT30;60354;47.798;12.472;2022-08-06T15:48:28;18.33;87.19
72380;SHT30;60354;47.798;12.472;2022-08-06T15:50:56;18.40;87.09
72380;SHT30;60354;47.798;12.472;2022-08-06T15:53:22;18.42;87.12
72380;SHT30;60354;47.798;12.472;2022-08-06T15:55:47;18.45;87.68
72380;SHT30;60354;47.798;12.472;2022-08-06T15:58:13;18.52;87.09
72380;SHT30;60354;47.798;12.472;2022-08-06T16:00:40;18.40;87.53
72380;SHT30;60354;47.798;12.472;2022-08-06T16:03:09;18.42;87.05
72380;SHT30;60354;47.798;12.472;2022-08-06T16:05:36;18.45;86.49
72380;SHT30;60354;47.798;12.472;2022-08-06T16:08:03;18.55;87.18
72380;SHT30;60354;47.798;12.472;2022-08-06T16:10:29;18.57;87.13
72380;SHT30;60354;47.798;12.472;2022-08-06T16:12:55;18.59;87.01
72380;SHT30;60354;47.798;12.472;2022-08-06T16:15:21;18.61;86.74
72380;SHT30;60354;47.798;12.472;2022-08-06T16:17:47;18.60;87.23
72380;SHT30;60354;47.798;12.472;2022-08-06T16:20:15;18.60;86.20
72380;SHT30;60354;47.798;12.472;2022-08-06T16:22:41;18.66;85.44
72380;SHT30;60354;47.798;12.472;2022-08-06T16:25:07;18.66;85.38
72380;SHT30;60354;47.798;12.472;2022-08-06T16:27:33;18.64;86.32
72380;SHT30;60354;47.798;12.472;2022-08-06T16:29:59;18.64;85.81
72380;SHT30;60354;47.798;12.472;2022-08-06T16:32:25;18.55;85.44
72380;SHT30;60354;47.798;12.472;2022-08-06T16:34:50;18.67;85.82
72380;SHT30;60354;47.798;12.472;2022-08-06T16:37:20;18.63;86.04
72380;SHT30;60354;47.798;12.472;2022-08-06T16:39:45;18.64;85.72
72380;SHT30;60354;47.798;12.472;2022-08-06T16:42:11;18.57;85.76